Estación Meteorológica Peña el Pijo (Robertgarden) [ 01/30/23 13:43:06 CET ]

Fecha Hora Presion(HPa) Temp (°C) Humedad % Rocio (°C) Viento ( m/s) Direccion Lluvia 1Hora(mm) Lluvia 24H(mm) LLuvia Total(mm)
2012-Aug-25 01:01:17 1012.000 20.1 37 4.9         178.19
2012-Aug-25 02:01:13 1011.800 19.1 37 4.0         178.19
2012-Aug-25 03:04:38 1011.800 18.5 38 3.9         178.19
2012-Aug-25 04:01:16 1011.600 17.4 41 4.0         178.19
2012-Aug-25 05:01:16 1011.400 16.2 45 4.2         178.19
2012-Aug-25 06:01:12 1011.000 16.1 45 4.1         178.19
2012-Aug-25 07:01:17 1011.400 14.1 51 4.2         178.19
2012-Aug-25 08:01:16 1011.900 13.1 59 5.2         178.19
2012-Aug-25 09:01:16 1012.300 19.2 55 9.9         178.19
2012-Aug-25 10:01:12 1012.700 24.7 41 10.6         178.19
2012-Aug-25 11:01:12 1013.300 26.6 39 11.5 0.4 E     178.19
2012-Aug-25 12:01:17 1013.400 28.8 36 12.2         178.19
2012-Aug-25 13:01:14 1013.200 29.6 34 12.0         178.19
2012-Aug-25 14:01:14 1013.100 31.4 26 9.4         178.19
2012-Aug-25 15:01:14 1012.900 32.9 25 10.1         178.19
2012-Aug-25 16:01:12 1012.400 33.7 25 10.7 1.0 SSE     178.19
2012-Aug-25 17:01:12 1012.300 33.4 25 10.5 2.4 ENE     178.19
2012-Aug-25 18:01:18 1011.900 32.6 26 10.6         178.19
2012-Aug-25 19:01:19 1012.300 30.2 29 10.2         178.19
2012-Aug-25 20:01:18 1012.400 26.6 35 9.8         178.19
2012-Aug-25 21:01:12 1013.000 24.9 39 10.0         178.19
2012-Aug-25 22:01:12 1013.800 22.8 46 10.5         178.19
2012-Aug-25 23:01:14 1014.300 20.3 53 10.4         178.19

Temperatura Máxima:33°    Temperatura Mínima:13°
Presión Máxima:1014.300 Hpa    Presión Mínima:1011.000 Hpa


Volver